Time;durP1;ratioP1;P1;durP2;ratioP2;P2;SDS_P1;SDS_P2;PMS_P1;PMS_P2;Temp;Humidity;BMP_temperature;BMP_pressure;BME280_temperature;BME280_humidity;BME280_pressure;Samples;Min_cycle;Max_cycle;Signal;HPM_P1;HPM_P2
2022/05/15 00:00:54;;;;;;;;;;;;;;;22.18;43.71;101182.09;2059548;28;626;-56
2022/05/15 00:01:54;;;;;;;;;;;;;;;22.19;43.66;101189.25;2059493;28;706;-56
2022/05/15 00:02:54;;;;;;;;;;;;;;;22.21;43.93;101186.50;2059496;28;872;-56
2022/05/15 00:03:55;;;;;;;;;;;;;;;22.18;44.00;101184.78;2059278;28;978;-56
2022/05/15 00:04:55;;;;;;;;;;;;;;;22.17;44.53;101185.72;2059459;28;843;-56
2022/05/15 00:05:58;;;;;;;;;;;;;;;22.17;44.39;101187.53;2059332;28;855;-55
2022/05/15 00:06:59;;;;;;;;;;;;;;;22.16;43.86;101186.66;2059347;28;992;-55
2022/05/15 00:07:59;;;;;;;;;;;;;;;22.18;44.24;101187.47;2059332;28;1025;-55
2022/05/15 00:08:59;;;;;;;;;;;;;;;22.16;44.69;101185.78;2059442;28;757;-56
2022/05/15 00:09:59;;;;;;;;;;;;;;;22.15;44.44;101192.97;2059227;28;784;-55
2022/05/15 00:11:00;;;;;;;;;;;;;;;22.14;44.38;101191.22;2059545;28;785;-56
2022/05/15 00:12:02;;;;;;;;;;;;;;;22.12;44.57;101187.69;2059252;28;919;-56
2022/05/15 00:13:03;;;;;;;;;;;;;;;22.13;43.83;101200.25;2059436;28;784;-55
2022/05/15 00:14:03;;;;;;;;;;;;;;;22.14;44.50;101193.03;2059262;28;966;-56
2022/05/15 00:15:04;;;;;;;;;;;;;;;22.12;44.69;101194.91;2059355;28;1902;-55
2022/05/15 00:16:04;;;;;;;;;;;;;;;22.12;44.57;101194.91;2059223;28;784;-56
2022/05/15 00:17:04;;;;;;;;;;;;;;;22.12;43.73;101194.91;2059513;28;626;-56
2022/05/15 00:18:05;;;;;;;;;;;;;;;22.12;43.85;101205.72;2059249;28;784;-55
2022/05/15 00:19:05;;;;;;;;;;;;;;;22.11;44.43;101215.59;2059357;28;1006;-55
2022/05/15 00:20:06;;;;;;;;;;;;;;;22.11;43.96;101206.63;2059142;28;970;-55
2022/05/15 00:21:09;;;;;;;;;;;;;;;22.11;44.58;101201.25;2059355;28;876;-56
2022/05/15 00:22:09;;;;;;;;;;;;;;;22.12;44.39;101208.41;2059188;28;879;-55
2022/05/15 00:23:10;;;;;;;;;;;;;;;22.11;44.18;101206.63;2059366;28;958;-55
2022/05/15 00:24:10;;;;;;;;;;;;;;;22.11;44.47;101209.34;2058475;28;963;-55
2022/05/15 00:25:11;;;;;;;;;;;;;;;22.10;44.24;101202.19;2058646;28;1717;-55
2022/05/15 00:26:11;;;;;;;;;;;;;;;22.10;44.54;101210.28;2058566;28;809;-55
2022/05/15 00:27:11;;;;;;;;;;;;;;;22.10;44.02;101215.66;2059109;28;1260;-55
2022/05/15 00:28:13;;;;;;;;;;;;;;;22.10;44.43;101210.28;2059165;28;978;-55
2022/05/15 00:29:13;;;;;;;;;;;;;;;22.10;44.38;101207.56;2059332;28;879;-56
2022/05/15 00:30:14;;;;;;;;;;;;;;;22.10;44.36;101211.13;2059085;28;966;-55
2022/05/15 00:31:15;;;;;;;;;;;;;;;22.10;43.78;101216.53;2059282;28;855;-55
2022/05/15 00:32:15;;;;;;;;;;;;;;;22.09;44.48;101214.78;2059101;28;1038;-55
2022/05/15 00:33:15;;;;;;;;;;;;;;;22.09;44.15;101214.78;2059438;28;848;-55
2022/05/15 00:34:15;;;;;;;;;;;;;;;22.08;43.61;101213.00;2058996;28;1903;-56
2022/05/15 00:35:16;;;;;;;;;;;;;;;22.10;44.34;101215.66;2059225;28;772;-56
2022/05/15 00:36:16;;;;;;;;;;;;;;;22.09;44.54;101222.00;2059028;28;915;-56
2022/05/15 00:37:16;;;;;;;;;;;;;;;22.04;44.58;101212.25;2059160;28;1135;-56
2022/05/15 00:38:16;;;;;;;;;;;;;;;22.05;44.50;101214.00;2059174;28;776;-55
2022/05/15 00:39:17;;;;;;;;;;;;;;;22.05;43.65;101218.53;2059226;28;883;-56
2022/05/15 00:40:18;;;;;;;;;;;;;;;22.06;43.97;101220.31;2059040;28;819;-56
2022/05/15 00:41:18;;;;;;;;;;;;;;;22.06;44.53;101221.16;2059155;28;918;-55
2022/05/15 00:42:18;;;;;;;;;;;;;;;22.05;43.71;101224.78;2059021;28;749;-55
2022/05/15 00:43:35;;;;;;;;;;;;;;;22.06;44.26;101218.47;2066535;28;938;-56
2022/05/15 00:44:36;;;;;;;;;;;;;;;22.05;44.60;101224.78;2058466;28;962;-55
2022/05/15 00:45:36;;;;;;;;;;;;;;;22.05;44.12;101218.53;2058459;28;1041;-55
2022/05/15 00:46:38;;;;;;;;;;;;;;;22.05;44.39;101215.84;2059065;28;903;-55
2022/05/15 00:47:39;;;;;;;;;;;;;;;22.05;44.54;101224.78;2059004;28;861;-55
2022/05/15 00:48:39;;;;;;;;;;;;;;;22.04;44.29;101223.03;2059088;28;1030;-55
2022/05/15 00:49:40;;;;;;;;;;;;;;;22.05;44.22;101227.50;2059031;28;926;-55
2022/05/15 00:50:40;;;;;;;;;;;;;;;22.03;44.01;101223.97;2059094;28;974;-55
2022/05/15 00:51:56;;;;;;;;;;;;;;;22.03;43.87;101234.75;2059108;28;994;-55
2022/05/15 00:52:58;;;;;;;;;;;;;;;22.04;44.54;101227.56;2059139;28;993;-56
2022/05/15 00:54:19;;;;;;;;;;;;;;;22.04;44.34;101227.56;2058946;28;930;-55
2022/05/15 00:55:42;;;;;;;;;;;;;;;22.03;44.54;101228.50;2059082;28;1199;-55
2022/05/15 00:56:50;;;;;;;;;;;;;;;22.04;44.42;101227.56;2061169;28;1109;-55
2022/05/15 00:57:57;;;;;;;;;;;;;;;22.03;43.82;101228.50;2058904;28;1002;-55
2022/05/15 00:59:00;;;;;;;;;;;;;;;22.04;44.08;101230.25;2059042;28;934;-55
2022/05/15 01:00:06;;;;;;;;;;;;;;;22.03;43.71;101237.44;2058911;28;863;-56
2022/05/15 01:01:07;;;;;;;;;;;;;;;22.03;44.34;101234.75;2059040;28;1041;-56
2022/05/15 01:02:09;;;;;;;;;;;;;;;22.03;44.13;101231.19;2058893;28;946;-55
2022/05/15 01:03:11;;;;;;;;;;;;;;;22.03;44.36;101229.34;2059064;28;1052;-55
2022/05/15 01:04:11;;;;;;;;;;;;;;;22.03;43.61;101231.19;2058990;28;756;-56
2022/05/15 01:05:13;;;;;;;;;;;;;;;22.03;43.62;101229.34;2059013;28;989;-56
2022/05/15 01:06:13;;;;;;;;;;;;;;;22.03;44.38;101233.88;2058763;28;1746;-55
2022/05/15 01:07:14;;;;;;;;;;;;;;;22.03;44.35;101241.97;2059124;28;722;-55
2022/05/15 01:08:14;;;;;;;;;;;;;;;22.03;44.34;101236.59;2058856;28;1033;-55
2022/05/15 01:09:14;;;;;;;;;;;;;;;22.02;44.23;101240.22;2059174;28;875;-55
2022/05/15 01:10:15;;;;;;;;;;;;;;;22.01;44.12;101238.44;2058764;28;768;-55
2022/05/15 01:11:18;;;;;;;;;;;;;;;22.02;43.86;101245.59;2059068;28;994;-56
2022/05/15 01:12:18;;;;;;;;;;;;;;;22.01;44.14;101244.72;2066213;28;789;-56
2022/05/15 01:13:19;;;;;;;;;;;;;;;22.01;44.42;101247.41;2066490;28;825;-55
2022/05/15 01:14:19;;;;;;;;;;;;;;;22.01;44.44;101251.94;2057981;28;1895;-55
2022/05/15 01:15:21;;;;;;;;;;;;;;;22.01;44.18;101252.81;2058436;28;773;-55
2022/05/15 01:16:23;;;;;;;;;;;;;;;22.02;43.71;101256.41;2058784;28;1065;-56
2022/05/15 01:17:23;;;;;;;;;;;;;;;22.02;44.45;101248.31;2058914;28;1045;-56
2022/05/15 01:18:25;;;;;;;;;;;;;;;22.02;44.13;101257.28;2058761;28;780;-55
2022/05/15 01:19:29;;;;;;;;;;;;;;;22.02;44.06;101256.41;2058887;28;1049;-55
2022/05/15 01:20:30;;;;;;;;;;;;;;;22.02;43.71;101253.72;2058749;28;793;-55
2022/05/15 01:21:36;;;;;;;;;;;;;;;22.01;44.27;101255.50;2058869;28;955;-56
2022/05/15 01:22:36;;;;;;;;;;;;;;;22.02;43.63;101256.41;2058738;28;1049;-55
2022/05/15 01:23:36;;;;;;;;;;;;;;;22.01;44.45;101258.19;2058830;28;859;-56
2022/05/15 01:24:37;;;;;;;;;;;;;;;22.01;44.49;101263.59;2058741;28;978;-55
2022/05/15 01:25:37;;;;;;;;;;;;;;;22.00;44.33;101269.91;2058814;28;809;-56
2022/05/15 01:26:38;;;;;;;;;;;;;;;22.00;43.60;101267.22;2058796;28;875;-56
2022/05/15 01:27:38;;;;;;;;;;;;;;;22.01;44.53;101265.44;2058533;28;1052;-55
2022/05/15 01:28:38;;;;;;;;;;;;;;;22.00;43.51;101269.91;2058887;28;990;-56
2022/05/15 01:29:43;;;;;;;;;;;;;;;22.00;44.37;101269.06;2058103;28;855;-55
2022/05/15 01:30:45;;;;;;;;;;;;;;;22.00;43.58;101269.06;2058308;28;848;-56
2022/05/15 01:31:49;;;;;;;;;;;;;;;22.01;43.83;101273.53;2057984;28;1053;-56
2022/05/15 01:32:49;;;;;;;;;;;;;;;22.00;43.66;101271.75;2058275;28;844;-56
2022/05/15 01:33:50;;;;;;;;;;;;;;;22.00;43.95;101269.06;2058762;28;865;-56
2022/05/15 01:34:50;;;;;;;;;;;;;;;22.00;44.13;101272.63;2058058;28;1973;-56
2022/05/15 01:35:50;;;;;;;;;;;;;;;22.00;43.89;101272.63;2058022;28;994;-56
2022/05/15 01:36:52;;;;;;;;;;;;;;;22.00;43.67;101280.72;2058792;28;999;-56
2022/05/15 01:37:52;;;;;;;;;;;;;;;21.99;43.82;101273.56;2058633;28;898;-56
2022/05/15 01:38:52;;;;;;;;;;;;;;;22.00;44.43;101277.16;2058927;28;718;-55
2022/05/15 01:39:53;;;;;;;;;;;;;;;22.00;44.44;101274.44;2058612;28;1049;-56
2022/05/15 01:40:53;;;;;;;;;;;;;;;21.98;44.52;101270.91;2066134;28;950;-55
2022/05/15 01:41:53;;;;;;;;;;;;;;;21.96;44.47;101273.66;2066051;28;784;-56
2022/05/15 01:42:53;;;;;;;;;;;;;;;21.97;44.40;101270.03;2058875;28;848;-55
2022/05/15 01:43:54;;;;;;;;;;;;;;;21.95;44.35;101274.59;2058546;28;796;-56
2022/05/15 01:44:54;;;;;;;;;;;;;;;21.96;44.08;101284.44;2058740;28;943;-55
2022/05/15 01:45:54;;;;;;;;;;;;;;;21.98;44.48;101281.72;2058605;28;835;-56
2022/05/15 01:46:54;;;;;;;;;;;;;;;21.98;43.90;101281.72;2058717;28;851;-56
2022/05/15 01:47:55;;;;;;;;;;;;;;;21.98;43.51;101287.97;2058567;28;851;-55
2022/05/15 01:48:55;;;;;;;;;;;;;;;21.97;44.00;101286.19;2058799;28;791;-56
2022/05/15 01:49:55;;;;;;;;;;;;;;;21.97;44.55;101291.59;2058526;28;981;-55
2022/05/15 01:50:56;;;;;;;;;;;;;;;21.97;43.57;101286.19;2058758;28;819;-56
2022/05/15 01:51:56;;;;;;;;;;;;;;;21.98;44.44;101287.97;2058669;28;907;-55
2022/05/15 01:52:56;;;;;;;;;;;;;;;21.97;44.34;101297.00;2058561;28;986;-55
2022/05/15 01:53:56;;;;;;;;;;;;;;;21.98;44.55;101300.59;2057975;28;1417;-55
2022/05/15 01:54:56;;;;;;;;;;;;;;;21.97;44.35;101301.53;2058585;28;1894;-56
2022/05/15 01:55:57;;;;;;;;;;;;;;;21.96;44.37;101302.44;2058551;28;786;-55
2022/05/15 01:56:57;;;;;;;;;;;;;;;21.96;44.15;101300.63;2058768;28;824;-55
2022/05/15 01:57:57;;;;;;;;;;;;;;;21.96;44.13;101299.75;2058461;28;676;-56
2022/05/15 01:58:57;;;;;;;;;;;;;;;21.97;43.79;101302.38;2058671;28;807;-56
2022/05/15 01:59:57;;;;;;;;;;;;;;;21.97;43.95;101301.53;2058477;28;982;-56
2022/05/15 02:00:57;;;;;;;;;;;;;;;21.97;44.42;101296.13;2058613;28;1152;-56
2022/05/15 02:01:58;;;;;;;;;;;;;;;21.96;44.41;101303.31;2058453;28;836;-55
2022/05/15 02:02:58;;;;;;;;;;;;;;;21.98;44.36;101308.69;2058594;28;844;-56
2022/05/15 02:03:58;;;;;;;;;;;;;;;21.96;44.39;101311.41;2058487;28;943;-55
2022/05/15 02:04:58;;;;;;;;;;;;;;;21.98;44.82;101312.25;2058613;28;1190;-56
2022/05/15 02:05:58;;;;;;;;;;;;;;;21.97;44.34;101312.31;2058537;28;773;-55
2022/05/15 02:06:58;;;;;;;;;;;;;;;21.96;44.33;101311.41;2058615;28;860;-55
2022/05/15 02:07:58;;;;;;;;;;;;;;;21.97;43.80;101315.00;2058395;28;1018;-55
2022/05/15 02:08:59;;;;;;;;;;;;;;;21.97;44.27;101317.72;2058623;28;824;-56
2022/05/15 02:09:59;;;;;;;;;;;;;;;21.96;44.44;101319.50;2058396;28;867;-56
2022/05/15 02:11:00;;;;;;;;;;;;;;;21.95;43.55;101323.13;2058586;28;780;-55
2022/05/15 02:12:00;;;;;;;;;;;;;;;21.96;44.24;101318.63;2058460;28;895;-56
2022/05/15 02:13:00;;;;;;;;;;;;;;;21.94;43.62;101315.97;2058680;28;982;-56
2022/05/15 02:14:00;;;;;;;;;;;;;;;21.94;44.46;101315.09;2058544;28;781;-56
2022/05/15 02:15:02;;;;;;;;;;;;;;;21.95;44.00;101317.75;2058476;28;1910;-56
2022/05/15 02:16:02;;;;;;;;;;;;;;;21.95;44.32;101320.44;2058460;28;836;-55
2022/05/15 02:17:02;;;;;;;;;;;;;;;21.95;44.38;101315.03;2058576;28;950;-56
2022/05/15 02:18:04;;;;;;;;;;;;;;;21.94;43.90;101324.06;2058344;28;1032;-56
2022/05/15 02:19:05;;;;;;;;;;;;;;;21.94;43.85;101317.81;2058580;28;859;-55
2022/05/15 02:20:06;;;;;;;;;;;;;;;21.95;44.35;101322.25;2058385;28;812;-56
2022/05/15 02:21:06;;;;;;;;;;;;;;;21.94;43.78;101324.06;2058576;28;894;-55
2022/05/15 02:22:06;;;;;;;;;;;;;;;21.94;43.97;101323.19;2058394;28;875;-55
2022/05/15 02:23:08;;;;;;;;;;;;;;;21.94;44.28;101332.16;2058525;28;855;-55
2022/05/15 02:24:08;;;;;;;;;;;;;;;21.95;44.24;101324.97;2058360;28;796;-55
2022/05/15 02:25:09;;;;;;;;;;;;;;;21.96;43.53;101329.44;2058614;28;979;-56
2022/05/15 02:26:10;;;;;;;;;;;;;;;21.96;44.34;101326.72;2058331;28;1574;-56
2022/05/15 02:27:10;;;;;;;;;;;;;;;21.95;43.63;101328.53;2058358;28;1215;-56
2022/05/15 02:28:10;;;;;;;;;;;;;;;21.93;44.10;101327.69;2058467;28;532;-56
2022/05/15 02:29:11;;;;;;;;;;;;;;;21.91;43.82;101326.84;2058625;28;1110;-55
2022/05/15 02:30:13;;;;;;;;;;;;;;;21.94;44.04;101333.97;2058350;28;958;-55
2022/05/15 02:31:13;;;;;;;;;;;;;;;21.94;44.03;101331.28;2058576;28;776;-56
2022/05/15 02:32:13;;;;;;;;;;;;;;;21.94;43.55;101333.97;2058418;28;906;-56
2022/05/15 02:33:13;;;;;;;;;;;;;;;21.93;44.20;101333.09;2058561;28;760;-55
2022/05/15 02:34:13;;;;;;;;;;;;;;;21.91;44.21;101333.16;2058346;28;975;-55
2022/05/15 02:35:13;;;;;;;;;;;;;;;21.94;44.14;101333.97;2058384;28;1911;-56
2022/05/15 02:36:13;;;;;;;;;;;;;;;21.93;43.35;101338.47;2058341;28;1030;-56
2022/05/15 02:37:14;;;;;;;;;;;;;;;21.92;43.90;101336.72;2058403;28;1184;-55
2022/05/15 02:38:14;;;;;;;;;;;;;;;21.93;44.17;101333.09;2058354;28;1025;-56
2022/05/15 02:39:14;;;;;;;;;;;;;;;21.94;44.17;101339.38;2058630;28;982;-55
2022/05/15 02:40:16;;;;;;;;;;;;;;;21.93;44.26;101341.19;2058263;28;1033;-56
2022/05/15 02:41:16;;;;;;;;;;;;;;;21.94;44.12;101345.66;2058533;28;816;-56
2022/05/15 02:42:16;;;;;;;;;;;;;;;21.94;44.08;101344.78;2058299;28;840;-55
2022/05/15 02:43:17;;;;;;;;;;;;;;;21.94;43.28;101344.78;2058484;28;958;-55
2022/05/15 02:44:17;;;;;;;;;;;;;;;21.94;43.90;101342.94;2058326;28;749;-56
2022/05/15 02:45:17;;;;;;;;;;;;;;;21.94;43.42;101348.34;2058461;28;966;-56
2022/05/15 02:46:17;;;;;;;;;;;;;;;21.94;43.96;101350.16;2058391;28;982;-56
2022/05/15 02:47:17;;;;;;;;;;;;;;;21.93;43.71;101349.28;2058400;28;839;-56
2022/05/15 02:51:03;;;;;;;;;;;;;;;21.93;43.62;101357.38;2057409;28;1085;-55
2022/05/15 02:52:03;;;;;;;;;;;;;;;21.92;43.16;101358.28;2057167;28;887;-56
2022/05/15 02:53:03;;;;;;;;;;;;;;;21.92;43.82;101359.19;2057455;28;1030;-56
2022/05/15 02:54:03;;;;;;;;;;;;;;;21.92;43.98;101363.69;2057256;28;812;-56
2022/05/15 02:55:04;;;;;;;;;;;;;;;21.91;43.58;101365.50;2057364;28;1988;-56
2022/05/15 02:56:16;;;;;;;;;;;;;;;21.93;43.88;101370.84;2049215;28;1171;-55
2022/05/15 02:57:16;;;;;;;;;;;;;;;21.94;43.54;101364.53;2050856;28;749;-56
2022/05/15 02:58:16;;;;;;;;;;;;;;;21.94;43.22;101372.63;2057219;28;648;-55
2022/05/15 02:59:16;;;;;;;;;;;;;;;21.92;43.21;101366.38;2057400;28;756;-56
2022/05/15 03:00:18;;;;;;;;;;;;;;;21.92;42.96;101369.97;2057162;28;1012;-56
2022/05/15 03:01:18;;;;;;;;;;;;;;;21.93;43.17;101370.84;2057397;28;1002;-55
2022/05/15 03:02:18;;;;;;;;;;;;;;;21.93;43.34;101368.16;2057245;28;819;-56
2022/05/15 03:03:18;;;;;;;;;;;;;;;21.94;43.67;101369.91;2057403;28;907;-55
2022/05/15 03:04:18;;;;;;;;;;;;;;;21.93;43.10;101378.94;2057205;28;1025;-55
2022/05/15 03:05:19;;;;;;;;;;;;;;;21.93;43.64;101373.53;2057510;28;785;-56
2022/05/15 03:06:20;;;;;;;;;;;;;;;21.93;43.55;101373.53;2058606;28;784;-55
2022/05/15 03:07:20;;;;;;;;;;;;;;;21.91;43.47;101372.72;2058957;28;899;-55
2022/05/15 03:08:20;;;;;;;;;;;;;;;21.91;43.41;101372.72;2058755;28;1025;-56
2022/05/15 03:09:20;;;;;;;;;;;;;;;21.91;43.07;101378.09;2058865;28;1140;-56
2022/05/15 03:10:22;;;;;;;;;;;;;;;21.90;43.07;101377.22;2058661;28;883;-56
2022/05/15 03:11:23;;;;;;;;;;;;;;;21.90;43.42;101370.94;2058866;28;796;-55
2022/05/15 03:12:23;;;;;;;;;;;;;;;21.90;43.50;101370.94;2058765;28;884;-56
2022/05/15 03:13:23;;;;;;;;;;;;;;;21.91;43.28;101378.09;2058867;28;1024;-55
2022/05/15 03:14:23;;;;;;;;;;;;;;;21.89;43.55;101375.47;2058612;28;1965;-55
2022/05/15 03:15:24;;;;;;;;;;;;;;;21.90;43.12;101381.72;2058859;28;936;-56
2022/05/15 03:16:28;;;;;;;;;;;;;;;21.90;43.38;101379.03;2058658;28;868;-56
2022/05/15 03:17:28;;;;;;;;;;;;;;;21.91;43.36;101388.88;2058902;28;894;-56
2022/05/15 03:18:28;;;;;;;;;;;;;;;21.91;42.56;101386.19;2058632;28;982;-56
2022/05/15 03:19:28;;;;;;;;;;;;;;;21.91;42.61;101386.19;2058743;28;1025;-55
2022/05/15 03:20:28;;;;;;;;;;;;;;;21.92;42.79;101387.97;2058665;28;777;-55
2022/05/15 03:21:29;;;;;;;;;;;;;;;21.91;42.95;101391.59;2050830;28;1149;-55
2022/05/15 03:22:29;;;;;;;;;;;;;;;21.90;42.80;101392.53;2050594;29;983;-56
2022/05/15 03:23:30;;;;;;;;;;;;;;;21.92;43.16;101393.34;2058728;28;824;-55
2022/05/15 03:24:30;;;;;;;;;;;;;;;21.92;43.27;101396.06;2058642;28;883;-56
2022/05/15 03:25:31;;;;;;;;;;;;;;;21.90;42.79;101397.91;2058850;28;799;-55
2022/05/15 03:26:34;;;;;;;;;;;;;;;21.90;43.14;101398.81;2058593;28;910;-55
2022/05/15 03:27:35;;;;;;;;;;;;;;;21.91;42.26;101405.06;2058500;28;1137;-56
2022/05/15 03:28:35;;;;;;;;;;;;;;;21.91;42.52;101403.28;2059068;28;976;-56
2022/05/15 03:29:35;;;;;;;;;;;;;;;21.91;42.18;101405.06;2059651;28;985;-55
2022/05/15 03:30:37;;;;;;;;;;;;;;;21.91;42.97;101400.59;2059705;28;808;-56
2022/05/15 03:31:39;;;;;;;;;;;;;;;21.91;42.71;101410.47;2059638;28;998;-56
2022/05/15 03:32:39;;;;;;;;;;;;;;;21.91;43.07;101413.16;2058997;28;932;-55
2022/05/15 03:33:40;;;;;;;;;;;;;;;21.91;42.69;101416.75;2058999;28;832;-56
2022/05/15 03:34:40;;;;;;;;;;;;;;;21.91;43.00;101410.47;2059694;28;1976;-55
2022/05/15 03:35:40;;;;;;;;;;;;;;;21.92;42.38;101417.63;2059603;28;1045;-55
2022/05/15 03:36:41;;;;;;;;;;;;;;;21.91;42.84;101421.25;2059636;28;1037;-55
2022/05/15 03:37:42;;;;;;;;;;;;;;;21.91;42.26;101410.47;2059635;28;1041;-56
2022/05/15 03:38:43;;;;;;;;;;;;;;;21.91;42.33;101415.88;2059662;28;883;-56
2022/05/15 03:39:44;;;;;;;;;;;;;;;21.90;42.56;101412.28;2059526;28;831;-56
2022/05/15 03:40:44;;;;;;;;;;;;;;;21.91;42.28;101418.56;2059640;28;876;-56
2022/05/15 03:41:44;;;;;;;;;;;;;;;21.90;42.79;101411.41;2059477;28;843;-55
2022/05/15 03:42:44;;;;;;;;;;;;;;;21.90;42.25;101420.38;2059679;28;664;-56
2022/05/15 03:43:44;;;;;;;;;;;;;;;21.90;42.56;101423.09;2059462;28;879;-56
2022/05/15 03:44:44;;;;;;;;;;;;;;;21.91;42.25;101423.97;2059666;28;797;-56
2022/05/15 03:45:45;;;;;;;;;;;;;;;21.91;42.32;101426.66;2059386;28;852;-56
2022/05/15 03:46:45;;;;;;;;;;;;;;;21.91;42.37;101426.66;2058901;28;1022;-56
2022/05/15 03:47:46;;;;;;;;;;;;;;;21.91;42.23;101432.03;2058833;28;863;-56
2022/05/15 03:48:46;;;;;;;;;;;;;;;21.92;42.35;101423.03;2059628;28;1006;-56
2022/05/15 03:49:47;;;;;;;;;;;;;;;21.90;41.82;101424.88;2059435;28;1097;-56
2022/05/15 03:50:47;;;;;;;;;;;;;;;21.91;42.41;101429.34;2058897;28;860;-55
2022/05/15 03:51:47;;;;;;;;;;;;;;;21.90;42.53;101430.28;2058844;28;773;-55
2022/05/15 03:52:47;;;;;;;;;;;;;;;21.88;42.70;101432.13;2059551;28;800;-56
2022/05/15 03:53:48;;;;;;;;;;;;;;;21.89;41.77;101437.50;2059408;28;974;-55
2022/05/15 03:54:48;;;;;;;;;;;;;;;21.90;42.02;101430.28;2059536;28;1967;-56
2022/05/15 03:55:48;;;;;;;;;;;;;;;21.91;42.52;101432.03;2059391;28;781;-56
2022/05/15 03:56:51;;;;;;;;;;;;;;;21.89;41.59;101426.72;2059576;28;852;-56
2022/05/15 03:57:55;;;;;;;;;;;;;;;21.90;42.00;101430.28;2059394;28;809;-56
2022/05/15 03:58:56;;;;;;;;;;;;;;;21.90;41.52;101428.47;2059534;28;816;-56
2022/05/15 03:59:56;;;;;;;;;;;;;;;21.90;41.92;101430.28;2059373;28;923;-56
2022/05/15 04:00:56;;;;;;;;;;;;;;;21.89;42.24;101439.31;2059493;28;856;-56
2022/05/15 04:01:56;;;;;;;;;;;;;;;22.74;40.07;101433.97;2059372;28;975;-55
2022/05/15 04:02:56;;;;;;;;;;;;;;;23.45;38.37;101435.19;2059459;28;776;-56
2022/05/15 04:03:58;;;;;;;;;;;;;;;23.93;37.19;101437.00;2059374;28;856;-55
2022/05/15 04:04:58;;;;;;;;;;;;;;;24.26;36.42;101438.50;2059480;28;994;-55
2022/05/15 04:05:58;;;;;;;;;;;;;;;24.51;35.93;101435.66;2059340;28;1010;-55
2022/05/15 04:06:59;;;;;;;;;;;;;;;24.90;35.62;101439.53;2059462;28;982;-55
2022/05/15 04:08:00;;;;;;;;;;;;;;;25.04;34.92;101440.78;2058742;28;848;-55
2022/05/15 04:09:00;;;;;;;;;;;;;;;25.21;34.73;101443.63;2058844;28;967;-56
2022/05/15 04:10:00;;;;;;;;;;;;;;;25.38;34.56;101444.69;2058586;28;785;-55
2022/05/15 04:11:00;;;;;;;;;;;;;;;25.59;33.47;101449.22;2058841;28;860;-55
2022/05/15 04:12:00;;;;;;;;;;;;;;;25.77;33.88;101445.72;2059240;28;982;-56
2022/05/15 04:13:01;;;;;;;;;;;;;;;25.86;33.30;101448.91;2059450;28;1045;-56
2022/05/15 04:14:01;;;;;;;;;;;;;;;25.98;32.95;101441.13;2059320;28;974;-55
2022/05/15 04:15:01;;;;;;;;;;;;;;;26.15;32.34;101440.38;2059622;28;1948;-55
2022/05/15 04:16:01;;;;;;;;;;;;;;;26.28;32.35;101443.38;2058566;28;1013;-55
2022/05/15 04:17:02;;;;;;;;;;;;;;;26.43;32.45;101442.63;2058372;28;876;-55
2022/05/15 04:18:02;;;;;;;;;;;;;;;26.54;31.55;101444.81;2059264;28;927;-55
2022/05/15 04:19:03;;;;;;;;;;;;;;;26.66;31.56;101447.88;2059432;28;788;-55
2022/05/15 04:20:03;;;;;;;;;;;;;;;26.73;31.67;101447.47;2059223;28;938;-55
2022/05/15 04:21:03;;;;;;;;;;;;;;;26.87;31.29;101448.66;2059341;28;1097;-55
2022/05/15 04:22:05;;;;;;;;;;;;;;;26.97;30.86;101457.22;2059179;28;748;-55
2022/05/15 04:23:05;;;;;;;;;;;;;;;27.10;31.11;101455.63;2058655;28;844;-55
2022/05/15 04:24:06;;;;;;;;;;;;;;;27.29;30.46;101450.09;2058587;28;797;-55
2022/05/15 04:25:07;;;;;;;;;;;;;;;27.33;30.17;101448.13;2059315;28;781;-55
2022/05/15 04:26:07;;;;;;;;;;;;;;;27.38;30.16;101446.00;2059138;28;959;-55
2022/05/15 04:27:07;;;;;;;;;;;;;;;27.44;30.18;101451.13;2059159;28;1139;-55
2022/05/15 04:28:07;;;;;;;;;;;;;;;27.51;30.22;101451.72;2059156;28;1025;-55
2022/05/15 04:29:08;;;;;;;;;;;;;;;27.69;29.80;101451.66;2059307;28;856;-55
2022/05/15 04:30:10;;;;;;;;;;;;;;;27.65;29.89;101449.16;2059155;28;971;-56
2022/05/15 04:31:11;;;;;;;;;;;;;;;27.63;30.12;101455.63;2059421;28;769;-55
2022/05/15 04:32:11;;;;;;;;;;;;;;;27.67;29.93;101457.22;2059176;28;732;-56
2022/05/15 04:33:11;;;;;;;;;;;;;;;27.82;29.70;101460.94;2059299;28;780;-55
2022/05/15 04:34:11;;;;;;;;;;;;;;;27.81;29.34;101468.22;2059091;28;772;-55
2022/05/15 04:35:12;;;;;;;;;;;;;;;28.00;29.09;101467.19;2059202;28;1914;-56
2022/05/15 04:36:12;;;;;;;;;;;;;;;28.06;29.45;101464.13;2059122;28;776;-55
2022/05/15 04:37:12;;;;;;;;;;;;;;;28.08;29.41;101464.06;2059194;28;1263;-55
2022/05/15 04:38:12;;;;;;;;;;;;;;;28.08;29.30;101464.06;2059103;28;824;-56
2022/05/15 04:39:12;;;;;;;;;;;;;;;28.22;28.83;101460.59;2059218;28;890;-55
2022/05/15 04:40:13;;;;;;;;;;;;;;;28.33;28.95;101466.31;2059083;28;1021;-56
2022/05/15 04:41:13;;;;;;;;;;;;;;;28.25;29.09;101472.22;2059331;28;757;-56
2022/05/15 04:42:13;;;;;;;;;;;;;;;28.29;28.99;101470.19;2059218;28;804;-56
2022/05/15 04:43:13;;;;;;;;;;;;;;;28.28;28.56;101472.97;2059255;28;903;-56
2022/05/15 04:44:14;;;;;;;;;;;;;;;28.33;28.77;101473.59;2058981;28;1048;-56
2022/05/15 04:45:14;;;;;;;;;;;;;;;28.47;28.59;101470.97;2059234;28;900;-56
2022/05/15 04:46:14;;;;;;;;;;;;;;;28.67;28.18;101472.53;2058964;28;1028;-56
2022/05/15 04:47:14;;;;;;;;;;;;;;;28.57;28.05;101470.44;2059149;28;977;-56
2022/05/15 04:48:15;;;;;;;;;;;;;;;28.37;28.61;101472.44;2059099;28;768;-56
2022/05/15 04:49:15;;;;;;;;;;;;;;;28.52;28.26;101477.03;2066494;28;997;-56
2022/05/15 04:50:16;;;;;;;;;;;;;;;28.59;28.47;101482.13;2066405;28;613;-56
2022/05/15 04:51:16;;;;;;;;;;;;;;;28.70;28.01;101476.94;2059088;28;808;-56
2022/05/15 04:52:16;;;;;;;;;;;;;;;28.84;27.86;101479.78;2059100;28;1025;-55
2022/05/15 04:53:16;;;;;;;;;;;;;;;28.57;28.08;101482.19;2059139;28;930;-56
2022/05/15 04:54:16;;;;;;;;;;;;;;;28.66;28.26;101480.81;2058956;28;974;-56
2022/05/15 04:55:17;;;;;;;;;;;;;;;28.60;28.47;101487.47;2059047;28;1958;-56
2022/05/15 04:56:17;;;;;;;;;;;;;;;28.55;28.10;101487.75;2058895;28;994;-55
2022/05/15 04:57:17;;;;;;;;;;;;;;;28.79;27.63;101491.91;2059100;28;714;-55
2022/05/15 04:58:17;;;;;;;;;;;;;;;28.86;27.52;101487.84;2058918;28;785;-57
2022/05/15 04:59:18;;;;;;;;;;;;;;;28.85;27.66;101486.94;2059052;28;1032;-55
2022/05/15 05:00:18;;;;;;;;;;;;;;;28.73;27.82;101484.94;2058906;28;920;-56
2022/05/15 05:01:18;;;;;;;;;;;;;;;28.79;27.64;101487.34;2059033;28;970;-56
2022/05/15 05:02:18;;;;;;;;;;;;;;;28.77;27.81;101492.00;2058937;28;1041;-56
2022/05/15 05:03:18;;;;;;;;;;;;;;;28.70;28.03;101487.84;2059019;28;785;-56
2022/05/15 05:04:19;;;;;;;;;;;;;;;28.63;28.25;101491.88;2058131;28;1899;-56
2022/05/15 05:05:19;;;;;;;;;;;;;;;28.66;28.04;101497.16;2058420;28;761;-56
2022/05/15 05:06:19;;;;;;;;;;;;;;;28.67;28.21;101497.06;2058840;28;861;-56
2022/05/15 05:07:20;;;;;;;;;;;;;;;28.88;27.74;101498.66;2059027;28;832;-56
2022/05/15 05:08:20;;;;;;;;;;;;;;;28.95;27.07;101491.88;2058843;28;855;-56
2022/05/15 05:09:20;;;;;;;;;;;;;;;28.89;27.67;101484.03;2059033;28;986;-56
2022/05/15 05:10:21;;;;;;;;;;;;;;;28.91;27.58;101487.56;2058793;28;784;-56
2022/05/15 05:11:21;;;;;;;;;;;;;;;28.85;27.70;101489.69;2059052;28;1021;-56
2022/05/15 05:12:22;;;;;;;;;;;;;;;28.86;27.80;101496.03;2058805;28;863;-56
2022/05/15 05:13:22;;;;;;;;;;;;;;;29.04;27.29;101494.03;2059057;28;847;-56
2022/05/15 05:14:22;;;;;;;;;;;;;;;29.06;27.52;101499.44;2058807;28;863;-56
2022/05/15 05:15:22;;;;;;;;;;;;;;;28.96;27.32;101494.53;2058900;28;1902;-56
2022/05/15 05:16:22;;;;;;;;;;;;;;;29.15;27.30;101493.41;2058749;28;990;-56
2022/05/15 05:17:22;;;;;;;;;;;;;;;29.10;26.88;101492.81;2059117;28;769;-56
2022/05/15 05:18:22;;;;;;;;;;;;;;;28.98;27.38;101497.13;2058760;28;891;-56
2022/05/15 05:19:23;;;;;;;;;;;;;;;28.88;27.79;101498.66;2058943;28;1021;-56
2022/05/15 05:20:23;;;;;;;;;;;;;;;28.80;27.38;101494.56;2058749;28;831;-56
2022/05/15 05:21:23;;;;;;;;;;;;;;;28.90;27.58;101497.59;2058913;28;773;-56
2022/05/15 05:22:23;;;;;;;;;;;;;;;28.83;27.57;101502.56;2058783;28;773;-56
2022/05/15 05:23:24;;;;;;;;;;;;;;;28.90;28.06;101510.34;2058981;28;1143;-56